Accueil
METAR-TAF:

METAR-TAF

Aéroports :

Aéroport Andorre

La Seu d'Urgell, Espagne

latitude: 42-20-29N, longitude: 001-24-17E, altitude: 802 m

Observation

Le bulletin a été fait il y a 12 heures et 33 minutes, à 16:00 UTC
Vent 9 kt de sud, variant entre sud-est et ouest/sud-ouest
Température 28°C
Humidité 40%
Pression 1014 hPa
Visibilité 10 km ou plus
Nuages épars à une hauteur de 5000 ft

METAR: LESU 051600Z 19009KT 140V250 9999 SCT050 28/13 Q1014

Heure: 06:33 (04:33 UTC)

Prévision

Le bulletin a été fait il y a 2 heures et 33 minutes, à 02:00 UTC
Prévision valable du 06 à 03 UTC au 07 à 03 UTC
Vent 4 kt de direction variable
Visibilité 10 km ou plus
Quelques nuages à une hauteur de 2500 ft
Temporairement
du 06 à 12 UTC au 06 à 18 UTC
Vent 10 kt de sud/sud-ouest

TAF: LESU 060200Z 0603/0703 VRB04KT 9999 FEW025 TX28/0614Z TN14/0605Z TEMPO 0612/0618 20010KT

Observations et prévisions météorologiques de plus de 4000 aéroports (messages METAR et TAF).

Les stations disponibles sont représentées par des disques jaunes et rouges sur la carte.

Passer la souris dessus pour voir le nom de la station.

Cliquer dessus pour voir les observations et prévisions météorologiques.

Pour changer de carte: cliquez sur les boutons verts avec une croix noire pour zoomer, sur le bouton vert avec un tiret pour effectuer un zoom arrière, ou sur les flèches vertes pour les cartes adjacentes.


METAR-TAF: